Time;durP1;ratioP1;P1;durP2;ratioP2;P2;SDS_P1;SDS_P2;PMS_P1;PMS_P2;Temp;Humidity;BMP_temperature;BMP_pressure;BME280_temperature;BME280_humidity;BME280_pressure;Samples;Min_cycle;Max_cycle;Signal;HPM_P1;HPM_P2
2021/10/23 08:42:59;;;;;;;;;;;;;;;;;;6329202;22;19903;-93
2021/10/23 08:45:27;;;;;;;;;;;;;;;;;;6279562;22;19963;-95
2021/10/23 08:47:58;;;;;;;;;;;;;;;;;;6279903;22;19950;-94
2021/10/23 08:50:27;;;;;;;;;;;;;;;;;;6275551;22;19910;-94
2021/10/23 08:53:00;;;;;;;;;;;;;;;;;;6276885;22;19942;-94
2021/10/23 09:19:55;;;;;;;;;;;;;;;;;;6293848;22;19908;-93
2021/10/23 09:22:24;;;;;;;;;;;;;;;;;;6240689;22;19907;-93
2021/10/23 09:25:09;;;;;;;;;;;;;;;;;;6238774;22;19919;-94
2021/10/23 09:27:45;;;;;;;;;;;;;;;;;;6242773;22;19914;-93
2021/10/23 09:30:14;;;;;;;;;;;;;;;;;;6248665;22;19986;-94
2021/10/23 09:35:55;;;;;;;;;;;;;;;;;;6322806;22;19922;-92
2021/10/23 09:38:24;;;;;;;;;;;;;;;;;;6249659;22;19951;-94
2021/10/23 09:40:54;;;;;;;;;;;;;;;;;;6220102;22;19918;-93
2021/10/23 09:43:23;;;;;;;;;;;;;;;;;;6221018;22;19948;-94
2021/10/23 09:46:02;;;;;;;;;;;;;;;;;;6219182;22;19971;-93
2021/10/23 09:51:38;;;;;;;;;;;;;;;;;;6333669;22;19950;-94
2021/10/23 09:54:14;;;;;;;;;;;;;;;;;;6282077;22;19978;-94
2021/10/23 09:56:50;;;;;;;;;;;;;;;;;;6280625;22;19947;-93
2021/10/23 09:59:26;;;;;;;;;;;;;;;;;;6279828;22;19955;-94
2021/10/23 10:01:57;;;;;;;;;;;;;;;;;;6278987;22;19978;-94
2021/10/23 10:04:28;;;;;;;;;;;;;;;;;;6280753;22;19951;-94
2021/10/23 10:07:00;;;;;;;;;;;;;;;;;;6280847;22;19947;-94
2021/10/23 10:09:31;;;;;;;;;;;;;;;;;;6280471;22;19951;-94
2021/10/23 10:12:00;;;;;;;;;;;;;;;;;;6262705;22;19951;-95
2021/10/23 10:14:33;;;;;;;;;;;;;;;;;;6217943;22;19947;-95
2021/10/23 10:17:03;;;;;;;;;;;;;;;;;;6218935;22;19943;-94
2021/10/23 10:19:32;;;;;;;;;;;;;;;;;;6219459;22;19947;-93
2021/10/23 10:22:09;;;;;;;;;;;;;;;;;;6218951;22;19919;-94
2021/10/23 10:24:38;;;;;;;;;;;;;;;;;;6219685;22;19959;-94
2021/10/23 10:27:10;;;;;;;;;;;;;;;;;;6220316;22;19943;-93
2021/10/23 10:39:16;;;;;;;;;;;;;;;;;;6299151;22;19923;-92
2021/10/23 10:44:46;;;;;;;;;;;;;;;;;;6235855;22;19923;-93
2021/10/23 10:47:55;;;;;;;;;;;;;;;;;;6236924;22;19926;-94
2021/10/23 10:50:33;;;;;;;;;;;;;;;;;;6233830;22;19920;-94
2021/10/23 10:53:09;;;;;;;;;;;;;;;;;;6231915;22;19938;-94
2021/10/23 10:55:41;;;;;;;;;;;;;;;;;;6228194;22;20756;-95
2021/10/23 10:58:10;;;;;;;;;;;;;;;;;;6224169;22;19926;-92
2021/10/23 11:01:08;;;;;;;;;;;;;;;;;;6217853;22;19919;-94
2021/10/23 11:03:38;;;;;;;;;;;;;;;;;;6219085;22;19919;-92
2021/10/23 11:06:25;;;;;;;;;;;;;;;;;;6219305;22;20257;-92
2021/10/23 11:09:09;;;;;;;;;;;;;;;;;;6226404;22;19926;-92
2021/10/23 11:20:47;;;;;;;;;;;;;;;;;;6301421;22;20341;-92
2021/10/23 11:23:19;;;;;;;;;;;;;;;;;;6248294;22;19929;-91
2021/10/23 11:25:50;;;;;;;;;;;;;;;;;;6249650;22;19919;-94
2021/10/23 11:28:18;;;;;;;;;;;;;;;;;;6249790;22;19926;-91
2021/10/23 11:30:46;;;;;;;;;;;;;;;;;;6275645;22;20340;-91
2021/10/23 11:33:17;;;;;;;;;;;;;;;;;;6247891;22;19923;-91
2021/10/23 11:35:49;;;;;;;;;;;;;;;;;;6250983;22;19922;-94
2021/10/23 11:38:21;;;;;;;;;;;;;;;;;;6252119;22;20341;-90
2021/10/23 11:40:53;;;;;;;;;;;;;;;;;;6250124;22;19923;-91
2021/10/23 11:43:22;;;;;;;;;;;;;;;;;;6249663;22;19942;-92
2021/10/23 11:45:50;;;;;;;;;;;;;;;;;;6273647;22;19919;-91
2021/10/23 11:48:19;;;;;;;;;;;;;;;;;;6245200;22;19919;-89
2021/10/23 11:50:49;;;;;;;;;;;;;;;;;;6253991;22;19926;-93
2021/10/23 11:53:18;;;;;;;;;;;;;;;;;;6251380;22;19923;-91
2021/10/23 11:55:47;;;;;;;;;;;;;;;;;;6244717;22;19907;-91
2021/10/23 11:58:16;;;;;;;;;;;;;;;;;;6254414;22;19918;-93
2021/10/23 12:00:49;;;;;;;;;;;;;;;;;;6252262;22;19923;-94
2021/10/23 12:06:23;;;;;;;;;;;;;;;;;;6251954;22;20261;-93
2021/10/23 12:08:52;;;;;;;;;;;;;;;;;;6252121;22;19932;-93
2021/10/23 12:11:21;;;;;;;;;;;;;;;;;;6252809;22;19919;-92
2021/10/23 12:13:52;;;;;;;;;;;;;;;;;;6246891;22;20633;-91
2021/10/23 12:16:20;;;;;;;;;;;;;;;;;;6246037;22;19923;-91
2021/10/23 12:18:59;;;;;;;;;;;;;;;;;;6250633;22;19919;-93
2021/10/23 12:21:37;;;;;;;;;;;;;;;;;;6282549;22;19926;-92
2021/10/23 12:24:29;;;;;;;;;;;;;;;;;;6248268;22;19929;-92
2021/10/23 12:27:11;;;;;;;;;;;;;;;;;;6214864;22;19919;-92
2021/10/23 12:29:42;;;;;;;;;;;;;;;;;;6243751;22;19926;-90
2021/10/23 12:32:14;;;;;;;;;;;;;;;;;;6245066;22;20367;-90
2021/10/23 12:34:57;;;;;;;;;;;;;;;;;;6245046;22;19926;-90
2021/10/23 12:48:15;;;;;;;;;;;;;;;;;;5038735;27;20064;-77
2021/10/23 12:50:43;;;;;;;;;;;;;;;;;;5018497;28;19939;-77
2021/10/23 12:53:11;;;;;;;;;;;;;;;;;;5025813;28;19943;-77
2021/10/23 12:55:40;;;;;;;;;;;;;;;;;;5020537;28;19963;-77
2021/10/23 12:58:09;;;;;;;;;;;;;;;;;;5019548;28;20550;-77
2021/10/23 13:00:38;;;;;;;;;;;;;;;;;;5016138;28;19929;-77
2021/10/23 13:03:07;;;;;;;;;;;;;;;;;;5026012;28;19948;-77
2021/10/23 13:05:37;;;;;;;;;;;;;;;;;;5057763;28;19935;-77
2021/10/23 13:08:05;;;;;;;;;;;;;;;;;;5034608;28;19933;-77
2021/10/23 13:10:34;;;;;;;;;;;;;;;;;;5046482;28;19929;-76
2021/10/23 13:13:02;;;;;;;;;;;;;;;;;;5069161;28;20543;-76
2021/10/23 13:15:30;;;;;;;;;;;;;;;;;;5010543;28;19948;-78
2021/10/23 13:17:58;;;;;;;;;;;;;;;;;;5005988;28;20340;-76
2021/10/23 13:20:27;;;;;;;;;;;;;;;;;;5007016;28;19940;-76
2021/10/23 13:22:56;;;;;;;;;;;;;;;;;;5052667;28;19944;-76
2021/10/23 13:25:25;;;;;;;;;;;;;;;;;;5028474;28;19933;-76
2021/10/23 13:27:53;;;;;;;;;;;;;;;;;;5029602;28;20666;-76
2021/10/23 13:30:22;;;;;;;;;;;;;;;;;;5047979;28;19933;-77
2021/10/23 13:32:50;;;;;;;;;;;;;;;;;;5027508;28;19932;-76
2021/10/23 13:35:18;;;;;;;;;;;;;;;;;;5045148;28;19925;-76
2021/10/23 13:37:46;;;;;;;;;;;;;;;;;;5032373;28;19952;-76
2021/10/23 13:40:16;;;;;;;;;;;;;;;;;;5050427;28;19929;-76
2021/10/23 13:42:44;;;;;;;;;;;;;;;;;;5030695;28;19940;-77
2021/10/23 13:45:15;;;;;;;;;;;;;;;;;;5032064;28;19940;-76
2021/10/23 13:47:43;;;;;;;;;;;;;;;;;;5046103;28;19925;-77
2021/10/23 13:50:11;;;;;;;;;;;;;;;;;;5017980;28;19925;-77
2021/10/23 13:52:40;;;;;;;;;;;;;;;;;;5036300;28;19933;-77
2021/10/23 13:55:08;;;;;;;;;;;;;;;;;;5040803;28;20324;-77
2021/10/23 13:57:38;;;;;;;;;;;;;;;;;;5026405;28;19933;-77
2021/10/23 14:00:07;;;;;;;;;;;;;;;;;;5007590;28;19933;-77
2021/10/23 14:02:35;;;;;;;;;;;;;;;;;;5028643;28;19933;-75
2021/10/23 14:05:04;;;;;;;;;;;;;;;;;;4999823;28;19932;-77
2021/10/23 14:07:32;;;;;;;;;;;;;;;;;;5023935;28;19925;-78
2021/10/23 14:10:00;;;;;;;;;;;;;;;;;;5023220;28;19932;-76
2021/10/23 14:12:28;;;;;;;;;;;;;;;;;;5024397;28;19929;-77
2021/10/23 14:14:58;;;;;;;;;;;;;;;;;;5024919;28;19925;-77
2021/10/23 14:17:26;;;;;;;;;;;;;;;;;;5022864;28;19925;-79
2021/10/23 14:19:55;;;;;;;;;;;;;;;;;;5037513;28;19956;-77
2021/10/23 14:22:23;;;;;;;;;;;;;;;;;;5012083;28;20309;-78
2021/10/23 14:24:52;;;;;;;;;;;;;;;;;;5009151;28;19926;-79
2021/10/23 14:27:30;;;;;;;;;;;;;;;;;;5018974;28;19928;-80
2021/10/23 14:30:02;;;;;;;;;;;;;;;;;;5039360;28;19925;-79
2021/10/23 14:32:30;;;;;;;;;;;;;;;;;;5028212;28;19932;-79
2021/10/23 14:34:58;;;;;;;;;;;;;;;;;;5054603;28;19926;-78
2021/10/23 14:37:26;;;;;;;;;;;;;;;;;;5022602;28;19933;-79
2021/10/23 14:39:54;;;;;;;;;;;;;;;;;;5052784;28;19925;-80
2021/10/23 14:42:22;;;;;;;;;;;;;;;;;;5040568;28;19925;-79
2021/10/23 14:44:51;;;;;;;;;;;;;;;;;;5024594;28;19929;-79
2021/10/23 14:47:20;;;;;;;;;;;;;;;;;;5026428;28;19925;-80
2021/10/23 14:49:48;;;;;;;;;;;;;;;;;;5028957;28;19929;-79
2021/10/23 14:52:17;;;;;;;;;;;;;;;;;;5009167;28;19936;-80
2021/10/23 14:54:45;;;;;;;;;;;;;;;;;;5025841;28;20397;-79
2021/10/23 14:57:13;;;;;;;;;;;;;;;;;;5041297;28;20463;-79
2021/10/23 14:59:41;;;;;;;;;;;;;;;;;;5003405;28;19925;-79
2021/10/23 15:02:09;;;;;;;;;;;;;;;;;;5022510;28;19932;-79
2021/10/23 15:04:39;;;;;;;;;;;;;;;;;;5057993;28;19925;-79
2021/10/23 15:07:07;;;;;;;;;;;;;;;;;;5027558;28;20283;-79
2021/10/23 15:09:35;;;;;;;;;;;;;;;;;;5028990;28;19932;-79
2021/10/23 15:12:04;;;;;;;;;;;;;;;;;;5025934;28;19936;-80
2021/10/23 15:14:32;;;;;;;;;;;;;;;;;;5025374;28;19940;-80
2021/10/23 15:17:00;;;;;;;;;;;;;;;;;;5023612;28;19929;-79
2021/10/23 15:19:29;;;;;;;;;;;;;;;;;;5024910;28;19925;-79
2021/10/23 15:21:58;;;;;;;;;;;;;;;;;;5026062;28;19955;-79
2021/10/23 15:24:26;;;;;;;;;;;;;;;;;;5021385;28;19936;-80
2021/10/23 15:26:54;;;;;;;;;;;;;;;;;;5047730;28;19924;-80
2021/10/23 15:29:23;;;;;;;;;;;;;;;;;;5064682;28;19979;-79
2021/10/23 15:31:51;;;;;;;;;;;;;;;;;;5025652;28;20377;-81
2021/10/23 15:34:19;;;;;;;;;;;;;;;;;;5006633;28;19929;-80
2021/10/23 15:36:48;;;;;;;;;;;;;;;;;;5039393;28;20285;-79
2021/10/23 15:39:17;;;;;;;;;;;;;;;;;;5031182;28;19925;-80
2021/10/23 15:41:53;;;;;;;;;;;;;;;;;;5025474;28;19925;-79
2021/10/23 15:44:22;;;;;;;;;;;;;;;;;;5016431;28;19925;-79
2021/10/23 15:46:52;;;;;;;;;;;;;;;;;;5015831;28;19926;-79
2021/10/23 15:49:22;;;;;;;;;;;;;;;;;;5044960;28;19925;-81
2021/10/23 15:51:50;;;;;;;;;;;;;;;;;;5032023;28;19925;-82
2021/10/23 15:54:20;;;;;;;;;;;;;;;;;;5027649;28;19926;-80
2021/10/23 15:56:48;;;;;;;;;;;;;;;;;;5042142;28;19940;-80
2021/10/23 15:59:17;;;;;;;;;;;;;;;;;;5044424;28;19929;-77
2021/10/23 16:01:45;;;;;;;;;;;;;;;;;;5072362;28;19925;-80
2021/10/23 16:04:14;;;;;;;;;;;;;;;;;;5007909;28;19940;-79
2021/10/23 16:06:42;;;;;;;;;;;;;;;;;;5020450;28;19927;-78
2021/10/23 16:09:10;;;;;;;;;;;;;;;;;;5006088;28;19925;-81
2021/10/23 16:11:40;;;;;;;;;;;;;;;;;;5027813;28;19925;-81
2021/10/23 16:14:08;;;;;;;;;;;;;;;;;;5022339;28;19940;-81
2021/10/23 16:16:36;;;;;;;;;;;;;;;;;;5014619;28;19933;-80
2021/10/23 16:19:05;;;;;;;;;;;;;;;;;;5048835;28;19932;-81
2021/10/23 16:21:33;;;;;;;;;;;;;;;;;;5027944;28;19937;-82
2021/10/23 16:24:02;;;;;;;;;;;;;;;;;;5014881;28;19933;-81
2021/10/23 16:26:30;;;;;;;;;;;;;;;;;;5019794;28;19925;-79
2021/10/23 16:29:00;;;;;;;;;;;;;;;;;;5014700;28;19925;-79
2021/10/23 16:31:28;;;;;;;;;;;;;;;;;;5020794;28;19926;-79
2021/10/23 16:33:57;;;;;;;;;;;;;;;;;;5033515;28;19933;-79
2021/10/23 16:36:25;;;;;;;;;;;;;;;;;;5022461;28;19925;-85
2021/10/23 16:38:53;;;;;;;;;;;;;;;;;;5007716;28;19940;-78
2021/10/23 16:41:22;;;;;;;;;;;;;;;;;;5032642;28;19925;-78
2021/10/23 16:43:50;;;;;;;;;;;;;;;;;;5041669;28;19925;-78
2021/10/23 16:46:19;;;;;;;;;;;;;;;;;;5039686;28;19925;-78
2021/10/23 16:48:47;;;;;;;;;;;;;;;;;;5014302;28;19956;-79
2021/10/23 16:51:18;;;;;;;;;;;;;;;;;;5026023;28;19925;-78
2021/10/23 16:53:46;;;;;;;;;;;;;;;;;;5030160;28;19932;-80
2021/10/23 16:56:14;;;;;;;;;;;;;;;;;;5026301;28;19933;-78
2021/10/23 16:58:42;;;;;;;;;;;;;;;;;;5032928;28;21016;-79
2021/10/23 17:01:11;;;;;;;;;;;;;;;;;;5000439;28;20366;-78
2021/10/23 17:03:41;;;;;;;;;;;;;;;;;;5026401;28;19933;-78
2021/10/23 17:06:09;;;;;;;;;;;;;;;;;;5011138;28;19948;-78
2021/10/23 17:08:37;;;;;;;;;;;;;;;;;;5009557;28;19940;-78
2021/10/23 17:11:06;;;;;;;;;;;;;;;;;;5033974;28;20301;-79
2021/10/23 17:13:34;;;;;;;;;;;;;;;;;;5030177;28;19926;-80
2021/10/23 17:16:02;;;;;;;;;;;;;;;;;;5048176;28;20318;-79
2021/10/23 17:18:31;;;;;;;;;;;;;;;;;;5006667;28;19929;-78
2021/10/23 17:21:03;;;;;;;;;;;;;;;;;;5014533;28;19925;-79
2021/10/23 17:23:32;;;;;;;;;;;;;;;;;;5048017;28;20417;-81
2021/10/23 17:26:01;;;;;;;;;;;;;;;;;;5029459;28;19925;-79
2021/10/23 17:28:29;;;;;;;;;;;;;;;;;;5027586;28;19925;-79
2021/10/23 17:30:59;;;;;;;;;;;;;;;;;;5019768;28;19959;-79
2021/10/23 17:33:28;;;;;;;;;;;;;;;;;;5024947;28;19925;-80
2021/10/23 17:35:56;;;;;;;;;;;;;;;;;;5031974;28;19926;-79
2021/10/23 17:38:26;;;;;;;;;;;;;;;;;;5044621;28;20021;-78
2021/10/23 17:40:55;;;;;;;;;;;;;;;;;;5027068;28;20408;-78
2021/10/23 17:43:23;;;;;;;;;;;;;;;;;;5026348;28;19936;-78
2021/10/23 17:45:52;;;;;;;;;;;;;;;;;;5019574;28;20020;-78
2021/10/23 17:48:20;;;;;;;;;;;;;;;;;;5020706;28;19933;-79
2021/10/23 17:50:48;;;;;;;;;;;;;;;;;;5040220;28;19925;-78
2021/10/23 17:53:16;;;;;;;;;;;;;;;;;;5043168;28;19956;-78
2021/10/23 17:55:46;;;;;;;;;;;;;;;;;;5034637;28;19932;-79
2021/10/23 17:58:14;;;;;;;;;;;;;;;;;;5028022;28;19925;-79
2021/10/23 18:00:43;;;;;;;;;;;;;;;;;;5029198;28;19925;-79
2021/10/23 18:03:11;;;;;;;;;;;;;;;;;;5012284;28;20416;-78
2021/10/23 18:05:40;;;;;;;;;;;;;;;;;;5023798;28;19929;-79
2021/10/23 18:08:08;;;;;;;;;;;;;;;;;;5036435;28;19924;-79
2021/10/23 18:10:37;;;;;;;;;;;;;;;;;;5028295;28;20293;-81
2021/10/23 18:13:08;;;;;;;;;;;;;;;;;;5021163;28;19925;-79
2021/10/23 18:15:40;;;;;;;;;;;;;;;;;;5042888;28;19942;-80
2021/10/23 18:18:11;;;;;;;;;;;;;;;;;;5047275;28;19925;-82
2021/10/23 18:20:39;;;;;;;;;;;;;;;;;;5039728;28;19940;-79
2021/10/23 18:23:09;;;;;;;;;;;;;;;;;;5023627;28;19933;-78
2021/10/23 18:25:38;;;;;;;;;;;;;;;;;;5001795;28;19929;-79
2021/10/23 18:28:12;;;;;;;;;;;;;;;;;;5050405;28;19925;-80
2021/10/23 18:30:40;;;;;;;;;;;;;;;;;;5007289;28;19940;-80
2021/10/23 18:33:09;;;;;;;;;;;;;;;;;;5005723;28;19929;-80
2021/10/23 18:35:38;;;;;;;;;;;;;;;;;;5027778;28;19925;-80
2021/10/23 18:38:06;;;;;;;;;;;;;;;;;;5041961;28;20009;-78
2021/10/23 18:40:34;;;;;;;;;;;;;;;;;;5031342;28;19926;-79
2021/10/23 18:43:03;;;;;;;;;;;;;;;;;;5056551;28;19933;-80
2021/10/23 18:45:32;;;;;;;;;;;;;;;;;;5027270;28;20384;-80
2021/10/23 18:48:01;;;;;;;;;;;;;;;;;;5040877;28;20403;-80
2021/10/23 18:50:30;;;;;;;;;;;;;;;;;;5027204;28;20301;-78
2021/10/23 18:52:58;;;;;;;;;;;;;;;;;;5009442;28;20378;-78
2021/10/23 18:55:27;;;;;;;;;;;;;;;;;;5035016;28;19947;-78
2021/10/23 18:57:55;;;;;;;;;;;;;;;;;;5049869;28;19940;-80
2021/10/23 19:00:24;;;;;;;;;;;;;;;;;;5054648;28;19925;-78
2021/10/23 19:02:53;;;;;;;;;;;;;;;;;;5040594;28;21076;-78
2021/10/23 19:05:23;;;;;;;;;;;;;;;;;;5025474;28;19925;-78
2021/10/23 19:07:53;;;;;;;;;;;;;;;;;;5033014;28;19933;-78
2021/10/23 19:10:21;;;;;;;;;;;;;;;;;;5024446;28;19932;-78
2021/10/23 19:12:49;;;;;;;;;;;;;;;;;;5018552;28;19936;-78
2021/10/23 19:15:18;;;;;;;;;;;;;;;;;;5023527;28;19940;-78
2021/10/23 19:17:47;;;;;;;;;;;;;;;;;;5016560;28;19929;-78
2021/10/23 19:20:17;;;;;;;;;;;;;;;;;;5053478;28;19933;-78
2021/10/23 19:22:45;;;;;;;;;;;;;;;;;;5042560;28;19929;-78
2021/10/23 19:25:13;;;;;;;;;;;;;;;;;;5006252;28;20305;-81
2021/10/23 19:27:44;;;;;;;;;;;;;;;;;;5025122;28;19925;-80
2021/10/23 19:30:13;;;;;;;;;;;;;;;;;;5025696;28;19930;-78
2021/10/23 19:32:41;;;;;;;;;;;;;;;;;;5011685;28;19925;-80
2021/10/23 19:35:10;;;;;;;;;;;;;;;;;;5027677;28;19933;-80
2021/10/23 19:37:39;;;;;;;;;;;;;;;;;;5049480;28;19932;-80
2021/10/23 19:40:08;;;;;;;;;;;;;;;;;;5045678;28;19933;-84
2021/10/23 19:42:36;;;;;;;;;;;;;;;;;;5027224;28;20416;-81
2021/10/23 19:45:07;;;;;;;;;;;;;;;;;;5026461;28;19933;-80
2021/10/23 19:47:35;;;;;;;;;;;;;;;;;;5025285;28;19936;-80
2021/10/23 19:50:03;;;;;;;;;;;;;;;;;;5024618;28;19970;-82
2021/10/23 19:52:32;;;;;;;;;;;;;;;;;;5024055;28;20294;-80
2021/10/23 19:55:01;;;;;;;;;;;;;;;;;;5020022;28;19944;-80
2021/10/23 19:57:29;;;;;;;;;;;;;;;;;;5042746;28;19925;-80
2021/10/23 19:59:57;;;;;;;;;;;;;;;;;;5025614;28;20302;-80
2021/10/23 20:02:26;;;;;;;;;;;;;;;;;;5052066;28;19932;-80
2021/10/23 20:04:54;;;;;;;;;;;;;;;;;;5036486;28;19948;-80
2021/10/23 20:07:22;;;;;;;;;;;;;;;;;;5059112;28;20066;-80
2021/10/23 20:09:50;;;;;;;;;;;;;;;;;;5044619;28;19932;-80
2021/10/23 20:12:20;;;;;;;;;;;;;;;;;;5032235;28;19916;-83
2021/10/23 20:14:48;;;;;;;;;;;;;;;;;;5050463;28;19924;-82
2021/10/23 20:17:17;;;;;;;;;;;;;;;;;;5025542;28;19933;-80
2021/10/23 20:19:45;;;;;;;;;;;;;;;;;;5009273;28;19925;-80
2021/10/23 20:22:13;;;;;;;;;;;;;;;;;;5028585;28;19992;-80
2021/10/23 20:24:41;;;;;;;;;;;;;;;;;;5020826;28;20316;-78
2021/10/23 20:27:10;;;;;;;;;;;;;;;;;;5028900;28;19935;-80
2021/10/23 20:29:39;;;;;;;;;;;;;;;;;;5044068;28;19932;-80
2021/10/23 20:32:08;;;;;;;;;;;;;;;;;;5027536;28;20324;-81
2021/10/23 20:34:36;;;;;;;;;;;;;;;;;;5028790;28;19925;-81
2021/10/23 20:37:06;;;;;;;;;;;;;;;;;;5049691;28;19995;-80
2021/10/23 20:39:34;;;;;;;;;;;;;;;;;;5022439;28;19945;-80
2021/10/23 20:42:03;;;;;;;;;;;;;;;;;;4999458;28;19929;-80
2021/10/23 20:44:31;;;;;;;;;;;;;;;;;;5027084;28;19925;-81
2021/10/23 20:47:00;;;;;;;;;;;;;;;;;;5050167;28;19929;-80
2021/10/23 20:49:32;;;;;;;;;;;;;;;;;;5041083;28;19933;-80
2021/10/23 20:52:00;;;;;;;;;;;;;;;;;;5033826;28;19925;-79
2021/10/23 20:54:28;;;;;;;;;;;;;;;;;;5014183;28;19956;-78
2021/10/23 20:56:56;;;;;;;;;;;;;;;;;;5015281;28;19925;-78
2021/10/23 20:59:24;;;;;;;;;;;;;;;;;;5033421;28;19925;-78
2021/10/23 21:01:53;;;;;;;;;;;;;;;;;;5029356;28;20304;-78
2021/10/23 21:04:23;;;;;;;;;;;;;;;;;;5026920;28;19925;-81
2021/10/23 21:06:52;;;;;;;;;;;;;;;;;;5053797;28;19929;-79
2021/10/23 21:09:20;;;;;;;;;;;;;;;;;;5059877;28;19948;-78
2021/10/23 21:11:49;;;;;;;;;;;;;;;;;;5014061;28;20599;-80
2021/10/23 21:14:17;;;;;;;;;;;;;;;;;;5030771;28;19925;-80
2021/10/23 21:16:45;;;;;;;;;;;;;;;;;;5054802;28;19925;-80
2021/10/23 21:19:14;;;;;;;;;;;;;;;;;;5030617;28;20332;-80
2021/10/23 21:21:44;;;;;;;;;;;;;;;;;;5038547;28;20436;-80
2021/10/23 21:24:12;;;;;;;;;;;;;;;;;;5033419;28;19929;-80
2021/10/23 21:26:40;;;;;;;;;;;;;;;;;;5035031;28;20392;-80
2021/10/23 21:29:09;;;;;;;;;;;;;;;;;;5032057;28;20412;-82
2021/10/23 21:31:41;;;;;;;;;;;;;;;;;;5054507;28;20404;-80
2021/10/23 21:34:09;;;;;;;;;;;;;;;;;;5028097;28;19933;-80
2021/10/23 21:36:37;;;;;;;;;;;;;;;;;;5060891;28;20416;-80
2021/10/23 21:39:07;;;;;;;;;;;;;;;;;;5032721;28;20289;-81
2021/10/23 21:41:35;;;;;;;;;;;;;;;;;;5048775;28;19932;-80
2021/10/23 21:44:04;;;;;;;;;;;;;;;;;;5033649;28;19933;-81
2021/10/23 21:46:32;;;;;;;;;;;;;;;;;;5031770;28;19925;-78
2021/10/23 21:49:00;;;;;;;;;;;;;;;;;;5036658;28;19948;-79
2021/10/23 21:51:28;;;;;;;;;;;;;;;;;;5047785;28;19925;-78
2021/10/23 21:53:56;;;;;;;;;;;;;;;;;;5065122;28;19926;-79
2021/10/23 21:56:26;;;;;;;;;;;;;;;;;;5013062;28;19932;-80
2021/10/23 21:58:54;;;;;;;;;;;;;;;;;;5029114;28;20000;-79
2021/10/23 22:01:22;;;;;;;;;;;;;;;;;;5015501;28;19925;-79
2021/10/23 22:03:51;;;;;;;;;;;;;;;;;;5045698;28;19944;-79
2021/10/23 22:06:19;;;;;;;;;;;;;;;;;;5033375;28;19933;-78
2021/10/23 22:08:47;;;;;;;;;;;;;;;;;;5030030;28;19925;-81
2021/10/23 22:11:15;;;;;;;;;;;;;;;;;;5047068;28;19933;-79
2021/10/23 22:13:45;;;;;;;;;;;;;;;;;;5062127;28;19929;-80
2021/10/23 22:16:13;;;;;;;;;;;;;;;;;;5039555;28;19933;-80
2021/10/23 22:18:43;;;;;;;;;;;;;;;;;;5025483;28;19925;-82
2021/10/23 22:21:13;;;;;;;;;;;;;;;;;;5027921;28;19932;-79
2021/10/23 22:23:41;;;;;;;;;;;;;;;;;;5018796;28;19926;-81
2021/10/23 22:26:11;;;;;;;;;;;;;;;;;;5060058;28;19935;-81
2021/10/23 22:28:40;;;;;;;;;;;;;;;;;;5033411;28;19929;-79
2021/10/23 22:31:09;;;;;;;;;;;;;;;;;;5012340;28;20108;-79
2021/10/23 22:33:38;;;;;;;;;;;;;;;;;;5014045;28;19926;-79
2021/10/23 22:36:06;;;;;;;;;;;;;;;;;;5049785;28;19925;-80
2021/10/23 22:38:34;;;;;;;;;;;;;;;;;;5038965;28;19933;-79
2021/10/23 22:41:03;;;;;;;;;;;;;;;;;;5030265;28;19926;-79
2021/10/23 22:43:31;;;;;;;;;;;;;;;;;;5027349;28;19925;-79
2021/10/23 22:45:59;;;;;;;;;;;;;;;;;;5008677;28;19933;-83
2021/10/23 22:48:29;;;;;;;;;;;;;;;;;;5026451;28;19933;-79
2021/10/23 22:50:57;;;;;;;;;;;;;;;;;;5029356;28;20285;-79
2021/10/23 22:53:26;;;;;;;;;;;;;;;;;;5037457;28;19926;-83
2021/10/23 22:55:54;;;;;;;;;;;;;;;;;;5029407;28;20427;-80
2021/10/23 22:58:22;;;;;;;;;;;;;;;;;;5036884;28;20293;-80
2021/10/23 23:00:51;;;;;;;;;;;;;;;;;;5030374;28;20385;-80
2021/10/23 23:03:19;;;;;;;;;;;;;;;;;;5029573;28;19925;-80
2021/10/23 23:05:48;;;;;;;;;;;;;;;;;;5005542;28;20109;-80
2021/10/23 23:08:16;;;;;;;;;;;;;;;;;;5028571;28;19931;-79
2021/10/23 23:10:45;;;;;;;;;;;;;;;;;;5033092;28;19936;-79
2021/10/23 23:13:13;;;;;;;;;;;;;;;;;;5039419;28;19930;-81
2021/10/23 23:15:42;;;;;;;;;;;;;;;;;;5033562;28;19941;-80
2021/10/23 23:18:11;;;;;;;;;;;;;;;;;;5027428;28;20385;-80
2021/10/23 23:20:39;;;;;;;;;;;;;;;;;;5049980;28;19928;-80
2021/10/23 23:23:14;;;;;;;;;;;;;;;;;;5041485;28;20305;-80
2021/10/23 23:25:42;;;;;;;;;;;;;;;;;;5024132;28;19926;-80
2021/10/23 23:28:11;;;;;;;;;;;;;;;;;;5011977;28;20313;-79
2021/10/23 23:30:39;;;;;;;;;;;;;;;;;;5008583;28;19929;-81
2021/10/23 23:33:07;;;;;;;;;;;;;;;;;;5018262;28;19948;-83
2021/10/23 23:35:36;;;;;;;;;;;;;;;;;;5011695;28;19933;-80
2021/10/23 23:38:04;;;;;;;;;;;;;;;;;;5026067;28;19936;-80
2021/10/23 23:40:33;;;;;;;;;;;;;;;;;;5029576;28;19932;-80
2021/10/23 23:43:02;;;;;;;;;;;;;;;;;;5027600;28;19925;-80
2021/10/23 23:45:30;;;;;;;;;;;;;;;;;;5009542;28;20416;-80
2021/10/23 23:47:58;;;;;;;;;;;;;;;;;;5056061;28;20285;-80
2021/10/23 23:50:27;;;;;;;;;;;;;;;;;;5010603;28;19925;-80
2021/10/23 23:52:56;;;;;;;;;;;;;;;;;;5022616;28;19933;-80
2021/10/23 23:55:25;;;;;;;;;;;;;;;;;;5057658;28;19925;-80
2021/10/23 23:57:55;;;;;;;;;;;;;;;;;;5040688;28;19929;-80
